Aviation Digital Data Service (ADDS)

Output produced by METARs form (2118 UTC 16 February 2019)
found at http://www.aviationweather.gov/metar/data/
 
METAR text: RCFN 161200Z 01006KT 340V050 9999 FEW020 BKN050 BKN250 22/19 Q1019 NOSIG RMK A3009
Conditions at: RCFN (FENG NIN TW-AFB , TW) observed 1200 UTC 16 February 2019
Temperature: 22.0°C (72°F)
Dewpoint: 19.0°C (66°F) [RH = 83%]
Pressure (altimeter): 30.09 inches Hg (1019.0 mb)
Winds: from the N (10 degrees) at 7 MPH (6 knots; 3.1 m/s)
Visibility: 6 or more miles (10+ km)
Ceiling: 5000 feet AGL
Clouds: few clouds at 2000 feet AGL
broken clouds at 5000 feet AGL
broken clouds at 25000 feet AGL
Weather: no significant weather observed at this time

METAR text: RCFN 161130Z 02004KT 340V050 9999 FEW020 SCT035 BKN050 23/19 Q1018 NOSIG RMK A3008
Conditions at: RCFN (FENG NIN TW-AFB , TW) observed 1130 UTC 16 February 2019
Temperature: 23.0°C (73°F)
Dewpoint: 19.0°C (66°F) [RH = 78%]
Pressure (altimeter): 30.06 inches Hg (1018.0 mb)
Winds: from the NNE (20 degrees) at 5 MPH (4 knots; 2.1 m/s)
Visibility: 6 or more miles (10+ km)
Ceiling: 5000 feet AGL
Clouds: few clouds at 2000 feet AGL
scattered clouds at 3500 feet AGL
broken clouds at 5000 feet AGL
Weather: no significant weather observed at this time

METAR text: RCFN 161100Z 02004KT 340V060 9999 FEW020 SCT035 BKN050 23/19 Q1018 NOSIG RMK A3007
Conditions at: RCFN (FENG NIN TW-AFB , TW) observed 1100 UTC 16 February 2019
Temperature: 23.0°C (73°F)
Dewpoint: 19.0°C (66°F) [RH = 78%]
Pressure (altimeter): 30.06 inches Hg (1018.0 mb)
Winds: from the NNE (20 degrees) at 5 MPH (4 knots; 2.1 m/s)
Visibility: 6 or more miles (10+ km)
Ceiling: 5000 feet AGL
Clouds: few clouds at 2000 feet AGL
scattered clouds at 3500 feet AGL
broken clouds at 5000 feet AGL
Weather: no significant weather observed at this time

METAR text: RCFN 161030Z 03006KT 340V070 9999 FEW018 SCT030 BKN060 23/20 Q1018 NOSIG RMK A3006
Conditions at: RCFN (FENG NIN TW-AFB , TW) observed 1030 UTC 16 February 2019
Temperature: 23.0°C (73°F)
Dewpoint: 20.0°C (68°F) [RH = 83%]
Pressure (altimeter): 30.06 inches Hg (1018.0 mb)
Winds: from the NNE (30 degrees) at 7 MPH (6 knots; 3.1 m/s)
Visibility: 6 or more miles (10+ km)
Ceiling: 6000 feet AGL
Clouds: few clouds at 1800 feet AGL
scattered clouds at 3000 feet AGL
broken clouds at 6000 feet AGL
Weather: no significant weather observed at this time

METAR text: RCFN 161000Z 04006KT 350V090 9999 VCSH FEW018 SCT030 BKN060 23/20 Q1017 NOSIG RMK A3005
Conditions at: RCFN (FENG NIN TW-AFB , TW) observed 1000 UTC 16 February 2019
Temperature: 23.0°C (73°F)
Dewpoint: 20.0°C (68°F) [RH = 83%]
Pressure (altimeter): 30.03 inches Hg (1017.0 mb)
Winds: from the NE (40 degrees) at 7 MPH (6 knots; 3.1 m/s)
Visibility: 6 or more miles (10+ km)
Ceiling: 6000 feet AGL
Clouds: few clouds at 1800 feet AGL
scattered clouds at 3000 feet AGL
broken clouds at 6000 feet AGL
Weather: VCSH  (showers in vicinity)

METAR text: RCFN 160930Z 05007KT 010V090 9999 VCSH FEW018 SCT028 BKN060 23/19 Q1017 NOSIG RMK A3005
Conditions at: RCFN (FENG NIN TW-AFB , TW) observed 0930 UTC 16 February 2019
Temperature: 23.0°C (73°F)
Dewpoint: 19.0°C (66°F) [RH = 78%]
Pressure (altimeter): 30.03 inches Hg (1017.0 mb)
Winds: from the NE (50 degrees) at 8 MPH (7 knots; 3.6 m/s)
Visibility: 6 or more miles (10+ km)
Ceiling: 6000 feet AGL
Clouds: few clouds at 1800 feet AGL
scattered clouds at 2800 feet AGL
broken clouds at 6000 feet AGL
Weather: VCSH  (showers in vicinity)

METAR text: RCFN 160900Z 04007KT 350V090 9999 VCSH FEW016 FEW025TCU SCT028 BKN060 24/19 Q1017 NOSIG RMK TCU SW A3005
Conditions at: RCFN (FENG NIN TW-AFB , TW) observed 0900 UTC 16 February 2019
Temperature: 24.0°C (75°F)
Dewpoint: 19.0°C (66°F) [RH = 74%]
Pressure (altimeter): 30.03 inches Hg (1017.0 mb)
Winds: from the NE (40 degrees) at 8 MPH (7 knots; 3.6 m/s)
Visibility: 6 or more miles (10+ km)
Ceiling: 6000 feet AGL
Clouds: few clouds at 1600 feet AGL
few clouds at 2500 feet AGL
scattered clouds at 2800 feet AGL
broken clouds at 6000 feet AGL
Weather: VCSH  (showers in vicinity)

METAR text: RCFN 160830Z 06010KT 030V090 9999 VCSH FEW016 SCT025 BKN060 24/19 Q1017 NOSIG RMK A3005
Conditions at: RCFN (FENG NIN TW-AFB , TW) observed 0830 UTC 16 February 2019
Temperature: 24.0°C (75°F)
Dewpoint: 19.0°C (66°F) [RH = 74%]
Pressure (altimeter): 30.03 inches Hg (1017.0 mb)
Winds: from the ENE (60 degrees) at 12 MPH (10 knots; 5.1 m/s)
Visibility: 6 or more miles (10+ km)
Ceiling: 6000 feet AGL
Clouds: few clouds at 1600 feet AGL
scattered clouds at 2500 feet AGL
broken clouds at 6000 feet AGL
Weather: VCSH  (showers in vicinity)

METAR text: RCFN 160800Z 06008KT 020V090 9999 VCSH FEW016 BKN060 BKN250 25/20 Q1017 NOSIG RMK A3004
Conditions at: RCFN (FENG NIN TW-AFB , TW) observed 0800 UTC 16 February 2019
Temperature: 25.0°C (77°F)
Dewpoint: 20.0°C (68°F) [RH = 74%]
Pressure (altimeter): 30.03 inches Hg (1017.0 mb)
Winds: from the ENE (60 degrees) at 9 MPH (8 knots; 4.1 m/s)
Visibility: 6 or more miles (10+ km)
Ceiling: 6000 feet AGL
Clouds: few clouds at 1600 feet AGL
broken clouds at 6000 feet AGL
broken clouds at 25000 feet AGL
Weather: VCSH  (showers in vicinity)

METAR text: RCFN 160730Z 06008KT 030V090 9999 VCSH FEW016 SCT022 BKN060 25/20 Q1017 NOSIG RMK A3004
Conditions at: RCFN (FENG NIN TW-AFB , TW) observed 0730 UTC 16 February 2019
Temperature: 25.0°C (77°F)
Dewpoint: 20.0°C (68°F) [RH = 74%]
Pressure (altimeter): 30.03 inches Hg (1017.0 mb)
Winds: from the ENE (60 degrees) at 9 MPH (8 knots; 4.1 m/s)
Visibility: 6 or more miles (10+ km)
Ceiling: 6000 feet AGL
Clouds: few clouds at 1600 feet AGL
scattered clouds at 2200 feet AGL
broken clouds at 6000 feet AGL
Weather: VCSH  (showers in vicinity)

METAR text: RCFN 160700Z 06008KT 020V110 9999 VCSH FEW016 FEW020TCU SCT025 BKN060 24/20 Q1017 NOSIG RMK TCU WSW A3004
Conditions at: RCFN (FENG NIN TW-AFB , TW) observed 0700 UTC 16 February 2019
Temperature: 24.0°C (75°F)
Dewpoint: 20.0°C (68°F) [RH = 78%]
Pressure (altimeter): 30.03 inches Hg (1017.0 mb)
Winds: from the ENE (60 degrees) at 9 MPH (8 knots; 4.1 m/s)
Visibility: 6 or more miles (10+ km)
Ceiling: 6000 feet AGL
Clouds: few clouds at 1600 feet AGL
few clouds at 2000 feet AGL
scattered clouds at 2500 feet AGL
broken clouds at 6000 feet AGL
Weather: VCSH  (showers in vicinity)

METAR text: RCFN 160630Z 07011KT 030V120 9999 VCSH FEW016 FEW020TCU SCT022 BKN050 24/20 Q1017 NOSIG RMK TCU WSW A3005
Conditions at: RCFN (FENG NIN TW-AFB , TW) observed 0630 UTC 16 February 2019
Temperature: 24.0°C (75°F)
Dewpoint: 20.0°C (68°F) [RH = 78%]
Pressure (altimeter): 30.03 inches Hg (1017.0 mb)
Winds: from the ENE (70 degrees) at 13 MPH (11 knots; 5.7 m/s)
Visibility: 6 or more miles (10+ km)
Ceiling: 5000 feet AGL
Clouds: few clouds at 1600 feet AGL
few clouds at 2000 feet AGL
scattered clouds at 2200 feet AGL
broken clouds at 5000 feet AGL
Weather: VCSH  (showers in vicinity)

METAR text: RCFN 160600Z 08009KT 050V110 9999 FEW016 SCT022 FEW025TCU BKN250 25/20 Q1017 NOSIG RMK TCU W A3005
Conditions at: RCFN (FENG NIN TW-AFB , TW) observed 0600 UTC 16 February 2019
Temperature: 25.0°C (77°F)
Dewpoint: 20.0°C (68°F) [RH = 74%]
Pressure (altimeter): 30.03 inches Hg (1017.0 mb)
Winds: from the E (80 degrees) at 10 MPH (9 knots; 4.6 m/s)
Visibility: 6 or more miles (10+ km)
Ceiling: 25000 feet AGL
Clouds: few clouds at 1600 feet AGL
scattered clouds at 2200 feet AGL
few clouds at 2500 feet AGL
broken clouds at 25000 feet AGL
Weather: no significant weather observed at this time

METAR text: RCFN 160530Z 07008KT 020V120 9999 FEW016 SCT025 BKN250 26/20 Q1018 NOSIG RMK A3006
Conditions at: RCFN (FENG NIN TW-AFB , TW) observed 0530 UTC 16 February 2019
Temperature: 26.0°C (79°F)
Dewpoint: 20.0°C (68°F) [RH = 70%]
Pressure (altimeter): 30.06 inches Hg (1018.0 mb)
Winds: from the ENE (70 degrees) at 9 MPH (8 knots; 4.1 m/s)
Visibility: 6 or more miles (10+ km)
Ceiling: 25000 feet AGL
Clouds: few clouds at 1600 feet AGL
scattered clouds at 2500 feet AGL
broken clouds at 25000 feet AGL
Weather: no significant weather observed at this time

METAR text: RCFN 160500Z 08009KT 040V120 9999 FEW016 BKN250 27/20 Q1018 NOSIG RMK A3007
Conditions at: RCFN (FENG NIN TW-AFB , TW) observed 0500 UTC 16 February 2019
Temperature: 27.0°C (81°F)
Dewpoint: 20.0°C (68°F) [RH = 66%]
Pressure (altimeter): 30.06 inches Hg (1018.0 mb)
Winds: from the E (80 degrees) at 10 MPH (9 knots; 4.6 m/s)
Visibility: 6 or more miles (10+ km)
Ceiling: 25000 feet AGL
Clouds: few clouds at 1600 feet AGL
broken clouds at 25000 feet AGL
Weather: no significant weather observed at this time

METAR text: RCFN 160430Z 07008KT 020V120 9999 FEW020 BKN250 26/19 Q1019 NOSIG RMK A3009
Conditions at: RCFN (FENG NIN TW-AFB , TW) observed 0430 UTC 16 February 2019
Temperature: 26.0°C (79°F)
Dewpoint: 19.0°C (66°F) [RH = 65%]
Pressure (altimeter): 30.09 inches Hg (1019.0 mb)
Winds: from the ENE (70 degrees) at 9 MPH (8 knots; 4.1 m/s)
Visibility: 6 or more miles (10+ km)
Ceiling: 25000 feet AGL
Clouds: few clouds at 2000 feet AGL
broken clouds at 25000 feet AGL
Weather: no significant weather observed at this time

METAR text: RCFN 160400Z 08008KT 030V120 9999 FEW020 BKN250 27/20 Q1019 NOSIG RMK A3010
Conditions at: RCFN (FENG NIN TW-AFB , TW) observed 0400 UTC 16 February 2019
Temperature: 27.0°C (81°F)
Dewpoint: 20.0°C (68°F) [RH = 66%]
Pressure (altimeter): 30.09 inches Hg (1019.0 mb)
Winds: from the E (80 degrees) at 9 MPH (8 knots; 4.1 m/s)
Visibility: 6 or more miles (10+ km)
Ceiling: 25000 feet AGL
Clouds: few clouds at 2000 feet AGL
broken clouds at 25000 feet AGL
Weather: no significant weather observed at this time

METAR text: RCFN 160330Z 08009KT 050V130 9999 FEW020 BKN250 27/19 Q1019 NOSIG RMK A3011
Conditions at: RCFN (FENG NIN TW-AFB , TW) observed 0330 UTC 16 February 2019
Temperature: 27.0°C (81°F)
Dewpoint: 19.0°C (66°F) [RH = 62%]
Pressure (altimeter): 30.09 inches Hg (1019.0 mb)
Winds: from the E (80 degrees) at 10 MPH (9 knots; 4.6 m/s)
Visibility: 6 or more miles (10+ km)
Ceiling: 25000 feet AGL
Clouds: few clouds at 2000 feet AGL
broken clouds at 25000 feet AGL
Weather: no significant weather observed at this time

METAR text: RCFN 160300Z 09008KT 030V140 9999 FEW025 BKN250 27/19 Q1020 NOSIG RMK A3012
Conditions at: RCFN (FENG NIN TW-AFB , TW) observed 0300 UTC 16 February 2019
Temperature: 27.0°C (81°F)
Dewpoint: 19.0°C (66°F) [RH = 62%]
Pressure (altimeter): 30.12 inches Hg (1020.0 mb)
Winds: from the E (90 degrees) at 9 MPH (8 knots; 4.1 m/s)
Visibility: 6 or more miles (10+ km)
Ceiling: 25000 feet AGL
Clouds: few clouds at 2500 feet AGL
broken clouds at 25000 feet AGL
Weather: no significant weather observed at this time

METAR text: RCFN 160230Z VRB04KT 9999 FEW025 BKN250 28/16 Q1020 NOSIG RMK A3013
Conditions at: RCFN (FENG NIN TW-AFB , TW) observed 0230 UTC 16 February 2019
Temperature: 28.0°C (82°F)
Dewpoint: 16.0°C (61°F) [RH = 48%]
Pressure (altimeter): 30.12 inches Hg (1020.0 mb)
Winds: variable direction winds at 5 MPH (4 knots; 2.1 m/s)
Visibility: 6 or more miles (10+ km)
Ceiling: 25000 feet AGL
Clouds: few clouds at 2500 feet AGL
broken clouds at 25000 feet AGL
Weather: no significant weather observed at this time

METAR text: RCFN 160200Z 05004KT 340V120 9999 FEW030 BKN300 27/17 Q1020 NOSIG RMK A3014
Conditions at: RCFN (FENG NIN TW-AFB , TW) observed 0200 UTC 16 February 2019
Temperature: 27.0°C (81°F)
Dewpoint: 17.0°C (63°F) [RH = 54%]
Pressure (altimeter): 30.12 inches Hg (1020.0 mb)
Winds: from the NE (50 degrees) at 5 MPH (4 knots; 2.1 m/s)
Visibility: 6 or more miles (10+ km)
Ceiling: 30000 feet AGL
Clouds: few clouds at 3000 feet AGL
broken clouds at 30000 feet AGL
Weather: no significant weather observed at this time

METAR text: RCFN 160130Z 02003KT 290V100 9999 FEW035 BKN300 27/18 Q1021 NOSIG RMK A3015
Conditions at: RCFN (FENG NIN TW-AFB , TW) observed 0130 UTC 16 February 2019
Temperature: 27.0°C (81°F)
Dewpoint: 18.0°C (64°F) [RH = 58%]
Pressure (altimeter): 30.15 inches Hg (1021.0 mb)
Winds: from the NNE (20 degrees) at 3 MPH (3 knots; 1.5 m/s)
Visibility: 6 or more miles (10+ km)
Ceiling: 30000 feet AGL
Clouds: few clouds at 3500 feet AGL
broken clouds at 30000 feet AGL
Weather: no significant weather observed at this time

METAR text: RCFN 160100Z 35004KT 280V060 9999 FEW030 BKN300 25/17 Q1021 NOSIG RMK A3015
Conditions at: RCFN (FENG NIN TW-AFB , TW) observed 0100 UTC 16 February 2019
Temperature: 25.0°C (77°F)
Dewpoint: 17.0°C (63°F) [RH = 61%]
Pressure (altimeter): 30.15 inches Hg (1021.0 mb)
Winds: from the N (350 degrees) at 5 MPH (4 knots; 2.1 m/s)
Visibility: 6 or more miles (10+ km)
Ceiling: 30000 feet AGL
Clouds: few clouds at 3000 feet AGL
broken clouds at 30000 feet AGL
Weather: no significant weather observed at this time

METAR text: RCFN 160030Z 34003KT 250V040 9999 FEW030 BKN300 24/17 Q1021 NOSIG RMK A3015
Conditions at: RCFN (FENG NIN TW-AFB , TW) observed 0030 UTC 16 February 2019
Temperature: 24.0°C (75°F)
Dewpoint: 17.0°C (63°F) [RH = 65%]
Pressure (altimeter): 30.15 inches Hg (1021.0 mb)
Winds: from the NNW (340 degrees) at 3 MPH (3 knots; 1.5 m/s)
Visibility: 6 or more miles (10+ km)
Ceiling: 30000 feet AGL
Clouds: few clouds at 3000 feet AGL
broken clouds at 30000 feet AGL
Weather: no significant weather observed at this time

METAR text: RCFN 160000Z 34004KT 280V040 9999 FEW025 BKN300 23/17 Q1021 NOSIG RMK A3015
Conditions at: RCFN (FENG NIN TW-AFB , TW) observed 0000 UTC 16 February 2019
Temperature: 23.0°C (73°F)
Dewpoint: 17.0°C (63°F) [RH = 69%]
Pressure (altimeter): 30.15 inches Hg (1021.0 mb)
Winds: from the NNW (340 degrees) at 5 MPH (4 knots; 2.1 m/s)
Visibility: 6 or more miles (10+ km)
Ceiling: 30000 feet AGL
Clouds: few clouds at 2500 feet AGL
broken clouds at 30000 feet AGL
Weather: no significant weather observed at this time

METAR text: RCFN 152354Z 33004KT 280V020 9999 FEW025 BKN300 23/17 Q1021 NOSIG RMK A3015
Conditions at: RCFN (FENG NIN TW-AFB , TW) observed 2354 UTC 15 February 2019
Temperature: 23.0°C (73°F)
Dewpoint: 17.0°C (63°F) [RH = 69%]
Pressure (altimeter): 30.15 inches Hg (1021.0 mb)
Winds: from the NNW (330 degrees) at 5 MPH (4 knots; 2.1 m/s)
Visibility: 6 or more miles (10+ km)
Ceiling: 30000 feet AGL
Clouds: few clouds at 2500 feet AGL
broken clouds at 30000 feet AGL
Weather: no significant weather observed at this time

METAR text: RCFN 152330Z 33004KT 280V030 9999 FEW025 BKN300 21/17 Q1021 NOSIG RMK A3015
Conditions at: RCFN (FENG NIN TW-AFB , TW) observed 2330 UTC 15 February 2019
Temperature: 21.0°C (70°F)
Dewpoint: 17.0°C (63°F) [RH = 78%]
Pressure (altimeter): 30.15 inches Hg (1021.0 mb)
Winds: from the NNW (330 degrees) at 5 MPH (4 knots; 2.1 m/s)
Visibility: 6 or more miles (10+ km)
Ceiling: 30000 feet AGL
Clouds: few clouds at 2500 feet AGL
broken clouds at 30000 feet AGL
Weather: no significant weather observed at this time

METAR text: RCFN 152300Z 32004KT 290V350 9999 FEW020 BKN300 19/17 Q1020 NOSIG RMK A3013
Conditions at: RCFN (FENG NIN TW-AFB , TW) observed 2300 UTC 15 February 2019
Temperature: 19.0°C (66°F)
Dewpoint: 17.0°C (63°F) [RH = 88%]
Pressure (altimeter): 30.12 inches Hg (1020.0 mb)
Winds: from the NW (320 degrees) at 5 MPH (4 knots; 2.1 m/s)
Visibility: 6 or more miles (10+ km)
Ceiling: 30000 feet AGL
Clouds: few clouds at 2000 feet AGL
broken clouds at 30000 feet AGL
Weather: no significant weather observed at this time

METAR text: RCFN 152230Z 31005KT 280V350 9999 FEW020 BKN300 19/17 Q1020 NOSIG RMK A3012
Conditions at: RCFN (FENG NIN TW-AFB , TW) observed 2230 UTC 15 February 2019
Temperature: 19.0°C (66°F)
Dewpoint: 17.0°C (63°F) [RH = 88%]
Pressure (altimeter): 30.12 inches Hg (1020.0 mb)
Winds: from the NW (310 degrees) at 6 MPH (5 knots; 2.6 m/s)
Visibility: 6 or more miles (10+ km)
Ceiling: 30000 feet AGL
Clouds: few clouds at 2000 feet AGL
broken clouds at 30000 feet AGL
Weather: no significant weather observed at this time

METAR text: RCFN 152200Z 32005KT 290V360 9999 FEW025 BKN300 19/17 Q1019 NOSIG RMK A3011
Conditions at: RCFN (FENG NIN TW-AFB , TW) observed 2200 UTC 15 February 2019
Temperature: 19.0°C (66°F)
Dewpoint: 17.0°C (63°F) [RH = 88%]
Pressure (altimeter): 30.09 inches Hg (1019.0 mb)
Winds: from the NW (320 degrees) at 6 MPH (5 knots; 2.6 m/s)
Visibility: 6 or more miles (10+ km)
Ceiling: 30000 feet AGL
Clouds: few clouds at 2500 feet AGL
broken clouds at 30000 feet AGL
Weather: no significant weather observed at this time

METAR text: RCFN 151300Z 32004KT 290V360 9999 FEW030 SCT250 20/18 Q1020 NOSIG RMK A3014
Conditions at: RCFN (FENG NIN TW-AFB , TW) observed 1300 UTC 15 February 2019
Temperature: 20.0°C (68°F)
Dewpoint: 18.0°C (64°F) [RH = 88%]
Pressure (altimeter): 30.12 inches Hg (1020.0 mb)
Winds: from the NW (320 degrees) at 5 MPH (4 knots; 2.1 m/s)
Visibility: 6 or more miles (10+ km)
Ceiling: at least 12,000 feet AGL
Clouds: few clouds at 3000 feet AGL
scattered clouds at 25000 feet AGL
Weather: no significant weather observed at this time

METAR text: RCFN 151230Z 32005KT 290V360 9999 FEW030 SCT250 20/18 Q1020 NOSIG RMK A3013
Conditions at: RCFN (FENG NIN TW-AFB , TW) observed 1230 UTC 15 February 2019
Temperature: 20.0°C (68°F)
Dewpoint: 18.0°C (64°F) [RH = 88%]
Pressure (altimeter): 30.12 inches Hg (1020.0 mb)
Winds: from the NW (320 degrees) at 6 MPH (5 knots; 2.6 m/s)
Visibility: 6 or more miles (10+ km)
Ceiling: at least 12,000 feet AGL
Clouds: few clouds at 3000 feet AGL
scattered clouds at 25000 feet AGL
Weather: no significant weather observed at this time

METAR text: RCFN 151200Z 32004KT 300V010 9999 FEW035 SCT250 20/19 Q1020 NOSIG RMK A3012
Conditions at: RCFN (FENG NIN TW-AFB , TW) observed 1200 UTC 15 February 2019
Temperature: 20.0°C (68°F)
Dewpoint: 19.0°C (66°F) [RH = 94%]
Pressure (altimeter): 30.12 inches Hg (1020.0 mb)
Winds: from the NW (320 degrees) at 5 MPH (4 knots; 2.1 m/s)
Visibility: 6 or more miles (10+ km)
Ceiling: at least 12,000 feet AGL
Clouds: few clouds at 3500 feet AGL
scattered clouds at 25000 feet AGL
Weather: no significant weather observed at this time

METAR text: RCFN 151130Z 31005KT 9999 FEW035 SCT250 20/19 Q1019 NOSIG RMK A3011
Conditions at: RCFN (FENG NIN TW-AFB , TW) observed 1130 UTC 15 February 2019
Temperature: 20.0°C (68°F)
Dewpoint: 19.0°C (66°F) [RH = 94%]
Pressure (altimeter): 30.09 inches Hg (1019.0 mb)
Winds: from the NW (310 degrees) at 6 MPH (5 knots; 2.6 m/s)
Visibility: 6 or more miles (10+ km)
Ceiling: at least 12,000 feet AGL
Clouds: few clouds at 3500 feet AGL
scattered clouds at 25000 feet AGL
Weather: no significant weather observed at this time

METAR text: RCFN 151100Z 32004KT 9999 FEW035 SCT250 21/19 Q1019 NOSIG RMK A3010
Conditions at: RCFN (FENG NIN TW-AFB , TW) observed 1100 UTC 15 February 2019
Temperature: 21.0°C (70°F)
Dewpoint: 19.0°C (66°F) [RH = 88%]
Pressure (altimeter): 30.09 inches Hg (1019.0 mb)
Winds: from the NW (320 degrees) at 5 MPH (4 knots; 2.1 m/s)
Visibility: 6 or more miles (10+ km)
Ceiling: at least 12,000 feet AGL
Clouds: few clouds at 3500 feet AGL
scattered clouds at 25000 feet AGL
Weather: no significant weather observed at this time

METAR text: RCFN 151030Z 19004KT 9999 FEW035 23/19 Q1019 NOSIG RMK A3009
Conditions at: RCFN (FENG NIN TW-AFB , TW) observed 1030 UTC 15 February 2019
Temperature: 23.0°C (73°F)
Dewpoint: 19.0°C (66°F) [RH = 78%]
Pressure (altimeter): 30.09 inches Hg (1019.0 mb)
Winds: from the S (190 degrees) at 5 MPH (4 knots; 2.1 m/s)
Visibility: 6 or more miles (10+ km)
Ceiling: at least 12,000 feet AGL
Clouds: few clouds at 3500 feet AGL
Weather: no significant weather observed at this time

METAR text: RCFN 151000Z 19004KT 9999 FEW035 23/19 Q1018 NOSIG RMK A3008
Conditions at: RCFN (FENG NIN TW-AFB , TW) observed 1000 UTC 15 February 2019
Temperature: 23.0°C (73°F)
Dewpoint: 19.0°C (66°F) [RH = 78%]
Pressure (altimeter): 30.06 inches Hg (1018.0 mb)
Winds: from the S (190 degrees) at 5 MPH (4 knots; 2.1 m/s)
Visibility: 6 or more miles (10+ km)
Ceiling: at least 12,000 feet AGL
Clouds: few clouds at 3500 feet AGL
Weather: no significant weather observed at this time

METAR text: RCFN 150930Z 18005KT 150V220 9999 FEW025 SCT250 24/19 Q1018 NOSIG RMK A3007
Conditions at: RCFN (FENG NIN TW-AFB , TW) observed 0930 UTC 15 February 2019
Temperature: 24.0°C (75°F)
Dewpoint: 19.0°C (66°F) [RH = 74%]
Pressure (altimeter): 30.06 inches Hg (1018.0 mb)
Winds: from the S (180 degrees) at 6 MPH (5 knots; 2.6 m/s)
Visibility: 6 or more miles (10+ km)
Ceiling: at least 12,000 feet AGL
Clouds: few clouds at 2500 feet AGL
scattered clouds at 25000 feet AGL
Weather: no significant weather observed at this time

Forecast for: RCFN (FENG NIN TW-AFB , TW)
Text: TAF RCFN 161700Z 1618/1718 36005KT 9999 FEW020 BKN032
Forecast period: 1800 UTC 16 February 2019 to 1800 UTC 17 February 2019
Forecast type: FROM: standard forecast or significant change
Winds: from the N (360 degrees) at 6 MPH (5 knots; 2.6 m/s)
Visibility: 6 or more miles 10+ km)
Ceiling: 3200 feet AGL
Clouds: few clouds at 2000 feet AGL
broken clouds at 3200 feet AGL
Weather: no significant weather forecast for this period
Text: TEMPO 1704/1710 06010KT SCT012 BKN022 BKN040
Forecast period: 0400 to 1000 UTC 17 February 2019
Forecast type: TEMPORARY: The following changes expected for less than half the time period
Winds: from the ENE (60 degrees) at 12 MPH (10 knots; 5.1 m/s)
Visibility: missing
Ceiling: 2200 feet AGL
Clouds: scattered clouds at 1200 feet AGL
broken clouds at 2200 feet AGL
broken clouds at 4000 feet AGL
Weather: no significant weather forecast for this period